sensor_id;sensor_type;location;lat;lon;timestamp;temperature;humidity
5226;DHT22;2632;51.666;7.146;2023-09-19T00:00:44;17.30;99.90
5226;DHT22;2632;51.666;7.146;2023-09-19T00:03:13;17.40;99.90
5226;DHT22;2632;51.666;7.146;2023-09-19T00:05:40;17.30;99.90
5226;DHT22;2632;51.666;7.146;2023-09-19T00:08:11;17.30;99.90
5226;DHT22;2632;51.666;7.146;2023-09-19T00:10:40;17.40;99.90
5226;DHT22;2632;51.666;7.146;2023-09-19T00:13:09;17.40;99.90
5226;DHT22;2632;51.666;7.146;2023-09-19T00:15:41;17.20;99.90
5226;DHT22;2632;51.666;7.146;2023-09-19T00:18:08;17.10;99.90
5226;DHT22;2632;51.666;7.146;2023-09-19T00:20:36;17.20;99.90
5226;DHT22;2632;51.666;7.146;2023-09-19T00:23:06;17.20;99.90
5226;DHT22;2632;51.666;7.146;2023-09-19T00:25:35;17.20;99.90
5226;DHT22;2632;51.666;7.146;2023-09-19T00:28:04;17.10;99.90
5226;DHT22;2632;51.666;7.146;2023-09-19T00:30:32;17.10;99.90
5226;DHT22;2632;51.666;7.146;2023-09-19T00:32:59;17.10;99.90
5226;DHT22;2632;51.666;7.146;2023-09-19T00:35:27;17.10;99.90
5226;DHT22;2632;51.666;7.146;2023-09-19T00:37:54;17.10;99.90
5226;DHT22;2632;51.666;7.146;2023-09-19T00:40:22;17.10;99.90
5226;DHT22;2632;51.666;7.146;2023-09-19T00:42:49;17.10;99.90
5226;DHT22;2632;51.666;7.146;2023-09-19T00:45:17;17.10;99.90
5226;DHT22;2632;51.666;7.146;2023-09-19T00:47:46;16.90;99.90
5226;DHT22;2632;51.666;7.146;2023-09-19T00:50:21;16.90;99.90
5226;DHT22;2632;51.666;7.146;2023-09-19T00:52:50;17.20;99.90
5226;DHT22;2632;51.666;7.146;2023-09-19T00:55:19;17.20;99.90
5226;DHT22;2632;51.666;7.146;2023-09-19T00:57:47;17.00;99.90
5226;DHT22;2632;51.666;7.146;2023-09-19T01:00:16;17.00;99.90
5226;DHT22;2632;51.666;7.146;2023-09-19T01:02:47;17.00;99.90
5226;DHT22;2632;51.666;7.146;2023-09-19T01:05:15;17.00;99.90
5226;DHT22;2632;51.666;7.146;2023-09-19T01:07:42;17.10;99.90
5226;DHT22;2632;51.666;7.146;2023-09-19T01:10:12;17.00;99.90
5226;DHT22;2632;51.666;7.146;2023-09-19T01:21:05;16.80;99.90
5226;DHT22;2632;51.666;7.146;2023-09-19T01:25:04;16.90;99.90
5226;DHT22;2632;51.666;7.146;2023-09-19T01:27:36;16.80;99.90
5226;DHT22;2632;51.666;7.146;2023-09-19T01:30:15;16.70;99.90
5226;DHT22;2632;51.666;7.146;2023-09-19T01:32:43;16.80;99.90
5226;DHT22;2632;51.666;7.146;2023-09-19T01:35:13;16.70;99.90
5226;DHT22;2632;51.666;7.146;2023-09-19T01:37:40;16.90;99.90
5226;DHT22;2632;51.666;7.146;2023-09-19T01:40:12;16.80;99.90
5226;DHT22;2632;51.666;7.146;2023-09-19T01:42:49;16.90;99.90
5226;DHT22;2632;51.666;7.146;2023-09-19T01:45:47;16.80;99.90
5226;DHT22;2632;51.666;7.146;2023-09-19T01:48:30;16.70;99.90
5226;DHT22;2632;51.666;7.146;2023-09-19T01:51:05;16.60;99.90
5226;DHT22;2632;51.666;7.146;2023-09-19T01:53:51;16.60;99.90
5226;DHT22;2632;51.666;7.146;2023-09-19T01:56:28;16.60;99.90
5226;DHT22;2632;51.666;7.146;2023-09-19T01:59:00;16.70;99.90
5226;DHT22;2632;51.666;7.146;2023-09-19T02:01:31;16.40;99.90
5226;DHT22;2632;51.666;7.146;2023-09-19T02:03:58;16.30;99.90
5226;DHT22;2632;51.666;7.146;2023-09-19T02:06:25;16.40;99.90
5226;DHT22;2632;51.666;7.146;2023-09-19T02:08:54;16.40;99.90
5226;DHT22;2632;51.666;7.146;2023-09-19T02:11:20;16.50;99.90
5226;DHT22;2632;51.666;7.146;2023-09-19T02:13:47;16.30;99.90
5226;DHT22;2632;51.666;7.146;2023-09-19T02:16:17;16.40;99.90
5226;DHT22;2632;51.666;7.146;2023-09-19T02:18:49;16.30;99.90
5226;DHT22;2632;51.666;7.146;2023-09-19T02:21:19;16.30;99.90
5226;DHT22;2632;51.666;7.146;2023-09-19T02:23:48;16.40;99.90
5226;DHT22;2632;51.666;7.146;2023-09-19T02:26:14;16.30;99.90
5226;DHT22;2632;51.666;7.146;2023-09-19T02:28:42;16.30;99.90
5226;DHT22;2632;51.666;7.146;2023-09-19T02:31:09;16.30;99.90
5226;DHT22;2632;51.666;7.146;2023-09-19T02:33:36;16.20;99.90
5226;DHT22;2632;51.666;7.146;2023-09-19T02:36:04;16.10;99.90
5226;DHT22;2632;51.666;7.146;2023-09-19T02:38:32;16.10;99.90
5226;DHT22;2632;51.666;7.146;2023-09-19T02:40:58;16.10;99.90
5226;DHT22;2632;51.666;7.146;2023-09-19T02:43:25;16.20;99.90
5226;DHT22;2632;51.666;7.146;2023-09-19T02:45:52;16.40;99.90
5226;DHT22;2632;51.666;7.146;2023-09-19T02:48:20;16.20;99.90
5226;DHT22;2632;51.666;7.146;2023-09-19T02:50:50;16.10;99.90
5226;DHT22;2632;51.666;7.146;2023-09-19T02:53:17;16.20;99.90
5226;DHT22;2632;51.666;7.146;2023-09-19T02:55:46;16.10;99.90
5226;DHT22;2632;51.666;7.146;2023-09-19T02:58:13;16.10;99.90
5226;DHT22;2632;51.666;7.146;2023-09-19T03:00:41;16.00;99.90
5226;DHT22;2632;51.666;7.146;2023-09-19T03:03:08;16.00;99.90
5226;DHT22;2632;51.666;7.146;2023-09-19T03:05:36;16.00;99.90
5226;DHT22;2632;51.666;7.146;2023-09-19T03:08:04;16.10;99.90
5226;DHT22;2632;51.666;7.146;2023-09-19T03:10:32;16.00;99.90
5226;DHT22;2632;51.666;7.146;2023-09-19T03:12:59;16.00;99.90
5226;DHT22;2632;51.666;7.146;2023-09-19T03:15:28;16.00;99.90
5226;DHT22;2632;51.666;7.146;2023-09-19T03:17:55;16.00;99.90
5226;DHT22;2632;51.666;7.146;2023-09-19T03:20:22;16.00;99.90
5226;DHT22;2632;51.666;7.146;2023-09-19T03:22:49;16.00;99.90
5226;DHT22;2632;51.666;7.146;2023-09-19T03:25:16;16.00;99.90
5226;DHT22;2632;51.666;7.146;2023-09-19T03:27:51;15.90;99.90
5226;DHT22;2632;51.666;7.146;2023-09-19T03:30:18;16.00;99.90
5226;DHT22;2632;51.666;7.146;2023-09-19T03:32:46;15.90;99.90
5226;DHT22;2632;51.666;7.146;2023-09-19T03:35:13;15.90;99.90
5226;DHT22;2632;51.666;7.146;2023-09-19T03:37:41;16.00;99.90
5226;DHT22;2632;51.666;7.146;2023-09-19T03:40:09;15.90;99.90
5226;DHT22;2632;51.666;7.146;2023-09-19T03:42:40;16.00;99.90
5226;DHT22;2632;51.666;7.146;2023-09-19T03:45:10;16.00;99.90
5226;DHT22;2632;51.666;7.146;2023-09-19T03:47:40;16.00;99.90
5226;DHT22;2632;51.666;7.146;2023-09-19T03:50:08;15.90;99.90
5226;DHT22;2632;51.666;7.146;2023-09-19T03:52:34;15.90;99.90
5226;DHT22;2632;51.666;7.146;2023-09-19T03:55:01;15.90;99.90
5226;DHT22;2632;51.666;7.146;2023-09-19T03:57:31;16.00;99.90
5226;DHT22;2632;51.666;7.146;2023-09-19T03:59:57;16.00;99.90
5226;DHT22;2632;51.666;7.146;2023-09-19T04:02:24;15.90;99.90
5226;DHT22;2632;51.666;7.146;2023-09-19T04:04:51;16.00;99.90
5226;DHT22;2632;51.666;7.146;2023-09-19T04:07:19;15.80;99.90
5226;DHT22;2632;51.666;7.146;2023-09-19T04:09:49;15.90;99.90
5226;DHT22;2632;51.666;7.146;2023-09-19T04:12:15;15.80;99.90
5226;DHT22;2632;51.666;7.146;2023-09-19T04:14:45;15.80;99.90
5226;DHT22;2632;51.666;7.146;2023-09-19T04:17:12;15.80;99.90
5226;DHT22;2632;51.666;7.146;2023-09-19T04:19:39;16.00;99.90
5226;DHT22;2632;51.666;7.146;2023-09-19T04:22:07;15.90;99.80
5226;DHT22;2632;51.666;7.146;2023-09-19T04:24:34;15.80;99.40
5226;DHT22;2632;51.666;7.146;2023-09-19T04:27:00;15.80;99.90
5226;DHT22;2632;51.666;7.146;2023-09-19T04:29:28;15.80;99.50
5226;DHT22;2632;51.666;7.146;2023-09-19T04:31:56;15.70;99.90
5226;DHT22;2632;51.666;7.146;2023-09-19T04:34:26;15.80;99.90
5226;DHT22;2632;51.666;7.146;2023-09-19T04:36:54;15.90;99.90
5226;DHT22;2632;51.666;7.146;2023-09-19T04:39:20;15.80;99.40
5226;DHT22;2632;51.666;7.146;2023-09-19T04:41:47;15.80;99.90
5226;DHT22;2632;51.666;7.146;2023-09-19T04:44:14;15.90;99.90
5226;DHT22;2632;51.666;7.146;2023-09-19T04:46:42;15.80;99.80
5226;DHT22;2632;51.666;7.146;2023-09-19T04:49:08;15.70;99.90
5226;DHT22;2632;51.666;7.146;2023-09-19T04:51:35;15.80;99.90
5226;DHT22;2632;51.666;7.146;2023-09-19T04:54:03;15.90;99.90
5226;DHT22;2632;51.666;7.146;2023-09-19T04:56:30;15.80;99.90
5226;DHT22;2632;51.666;7.146;2023-09-19T04:58:59;15.80;99.90
5226;DHT22;2632;51.666;7.146;2023-09-19T05:01:26;15.80;99.90
5226;DHT22;2632;51.666;7.146;2023-09-19T05:03:53;15.80;99.90
5226;DHT22;2632;51.666;7.146;2023-09-19T05:06:20;15.70;99.90
5226;DHT22;2632;51.666;7.146;2023-09-19T05:08:48;15.80;99.90
5226;DHT22;2632;51.666;7.146;2023-09-19T05:11:18;15.80;99.90
5226;DHT22;2632;51.666;7.146;2023-09-19T05:13:45;15.90;99.90
5226;DHT22;2632;51.666;7.146;2023-09-19T05:16:12;15.80;99.90
5226;DHT22;2632;51.666;7.146;2023-09-19T05:18:39;15.80;99.90
5226;DHT22;2632;51.666;7.146;2023-09-19T05:21:06;15.80;99.90
5226;DHT22;2632;51.666;7.146;2023-09-19T05:23:32;15.80;99.90
5226;DHT22;2632;51.666;7.146;2023-09-19T05:25:59;15.80;99.90
5226;DHT22;2632;51.666;7.146;2023-09-19T05:28:26;15.70;99.90
5226;DHT22;2632;51.666;7.146;2023-09-19T05:30:53;15.70;99.90
5226;DHT22;2632;51.666;7.146;2023-09-19T05:33:20;15.70;99.90
5226;DHT22;2632;51.666;7.146;2023-09-19T05:35:50;15.70;99.90
5226;DHT22;2632;51.666;7.146;2023-09-19T05:38:16;15.60;99.90
5226;DHT22;2632;51.666;7.146;2023-09-19T05:40:45;15.70;99.90
5226;DHT22;2632;51.666;7.146;2023-09-19T05:43:13;15.80;99.90
5226;DHT22;2632;51.666;7.146;2023-09-19T05:45:41;15.70;99.90
5226;DHT22;2632;51.666;7.146;2023-09-19T05:48:13;15.80;99.90
5226;DHT22;2632;51.666;7.146;2023-09-19T05:50:40;15.80;99.90
5226;DHT22;2632;51.666;7.146;2023-09-19T05:53:07;15.80;99.90
5226;DHT22;2632;51.666;7.146;2023-09-19T05:55:33;15.80;99.90
5226;DHT22;2632;51.666;7.146;2023-09-19T05:58:00;15.80;99.90
5226;DHT22;2632;51.666;7.146;2023-09-19T06:00:29;15.90;99.90
5226;DHT22;2632;51.666;7.146;2023-09-19T06:02:59;15.90;99.90
5226;DHT22;2632;51.666;7.146;2023-09-19T06:05:27;15.90;99.90
5226;DHT22;2632;51.666;7.146;2023-09-19T06:07:54;15.90;99.90
5226;DHT22;2632;51.666;7.146;2023-09-19T06:10:21;16.00;99.90
5226;DHT22;2632;51.666;7.146;2023-09-19T06:12:49;16.00;99.90
5226;DHT22;2632;51.666;7.146;2023-09-19T06:15:16;16.10;99.90
5226;DHT22;2632;51.666;7.146;2023-09-19T06:17:53;16.10;99.90
5226;DHT22;2632;51.666;7.146;2023-09-19T06:20:23;16.20;99.90
5226;DHT22;2632;51.666;7.146;2023-09-19T06:22:50;16.20;99.90
5226;DHT22;2632;51.666;7.146;2023-09-19T06:25:21;16.20;99.90
5226;DHT22;2632;51.666;7.146;2023-09-19T06:27:50;16.10;99.90
5226;DHT22;2632;51.666;7.146;2023-09-19T06:30:22;16.10;99.90
5226;DHT22;2632;51.666;7.146;2023-09-19T06:32:56;16.30;99.90
5226;DHT22;2632;51.666;7.146;2023-09-19T06:35:23;16.30;99.90
5226;DHT22;2632;51.666;7.146;2023-09-19T06:37:49;16.40;99.90
5226;DHT22;2632;51.666;7.146;2023-09-19T06:40:17;16.40;99.90
5226;DHT22;2632;51.666;7.146;2023-09-19T06:42:51;16.30;99.90
5226;DHT22;2632;51.666;7.146;2023-09-19T06:45:19;16.40;99.90
5226;DHT22;2632;51.666;7.146;2023-09-19T06:47:46;16.40;99.90
5226;DHT22;2632;51.666;7.146;2023-09-19T06:50:21;16.40;99.90
5226;DHT22;2632;51.666;7.146;2023-09-19T06:52:53;16.50;99.90
5226;DHT22;2632;51.666;7.146;2023-09-19T06:55:22;16.60;99.90
5226;DHT22;2632;51.666;7.146;2023-09-19T06:57:55;16.60;99.90
5226;DHT22;2632;51.666;7.146;2023-09-19T07:00:22;16.60;99.90
5226;DHT22;2632;51.666;7.146;2023-09-19T07:03:00;16.70;99.90
5226;DHT22;2632;51.666;7.146;2023-09-19T07:05:28;16.80;99.90
5226;DHT22;2632;51.666;7.146;2023-09-19T07:07:54;16.80;99.90
5226;DHT22;2632;51.666;7.146;2023-09-19T07:10:22;16.80;99.90
5226;DHT22;2632;51.666;7.146;2023-09-19T07:13:16;16.70;99.90
5226;DHT22;2632;51.666;7.146;2023-09-19T07:15:44;16.90;99.90
5226;DHT22;2632;51.666;7.146;2023-09-19T07:18:15;17.10;99.90
5226;DHT22;2632;51.666;7.146;2023-09-19T07:20:44;17.30;99.80
5226;DHT22;2632;51.666;7.146;2023-09-19T07:23:18;17.10;99.80
5226;DHT22;2632;51.666;7.146;2023-09-19T07:25:47;17.00;99.80
5226;DHT22;2632;51.666;7.146;2023-09-19T07:28:15;17.10;99.90
5226;DHT22;2632;51.666;7.146;2023-09-19T07:30:42;17.10;99.80
5226;DHT22;2632;51.666;7.146;2023-09-19T07:33:08;17.10;99.90
5226;DHT22;2632;51.666;7.146;2023-09-19T07:35:38;17.30;99.70
5226;DHT22;2632;51.666;7.146;2023-09-19T07:38:08;17.30;99.70
5226;DHT22;2632;51.666;7.146;2023-09-19T07:40:36;17.50;99.70
5226;DHT22;2632;51.666;7.146;2023-09-19T07:43:06;17.60;99.40
5226;DHT22;2632;51.666;7.146;2023-09-19T07:45:33;17.60;99.70
5226;DHT22;2632;51.666;7.146;2023-09-19T07:48:00;17.50;99.30
5226;DHT22;2632;51.666;7.146;2023-09-19T07:50:32;17.60;99.80
5226;DHT22;2632;51.666;7.146;2023-09-19T07:52:59;17.70;99.40
5226;DHT22;2632;51.666;7.146;2023-09-19T07:55:26;17.70;99.20
5226;DHT22;2632;51.666;7.146;2023-09-19T07:57:53;17.80;99.60
5226;DHT22;2632;51.666;7.146;2023-09-19T08:00:20;17.80;98.90
5226;DHT22;2632;51.666;7.146;2023-09-19T08:02:47;18.20;98.90
5226;DHT22;2632;51.666;7.146;2023-09-19T08:05:24;18.40;98.80
5226;DHT22;2632;51.666;7.146;2023-09-19T08:07:51;18.70;97.30
5226;DHT22;2632;51.666;7.146;2023-09-19T08:10:19;18.90;97.90
5226;DHT22;2632;51.666;7.146;2023-09-19T08:12:46;18.70;97.30
5226;DHT22;2632;51.666;7.146;2023-09-19T08:15:18;18.70;97.90
5226;DHT22;2632;51.666;7.146;2023-09-19T08:17:48;19.10;97.00
5226;DHT22;2632;51.666;7.146;2023-09-19T08:20:16;19.30;96.60
5226;DHT22;2632;51.666;7.146;2023-09-19T08:22:47;19.50;96.20
5226;DHT22;2632;51.666;7.146;2023-09-19T08:25:15;19.40;96.60
5226;DHT22;2632;51.666;7.146;2023-09-19T08:27:46;19.60;95.90
5226;DHT22;2632;51.666;7.146;2023-09-19T08:30:18;19.90;95.90
5226;DHT22;2632;51.666;7.146;2023-09-19T08:32:45;19.60;95.50
5226;DHT22;2632;51.666;7.146;2023-09-19T08:35:13;19.60;95.50
5226;DHT22;2632;51.666;7.146;2023-09-19T08:37:42;19.70;95.60
5226;DHT22;2632;51.666;7.146;2023-09-19T08:40:09;19.70;95.50
5226;DHT22;2632;51.666;7.146;2023-09-19T08:42:49;19.80;95.20
5226;DHT22;2632;51.666;7.146;2023-09-19T08:45:22;20.00;94.60
5226;DHT22;2632;51.666;7.146;2023-09-19T08:50:39;20.50;94.10
5226;DHT22;2632;51.666;7.146;2023-09-19T08:53:11;20.60;93.60
5226;DHT22;2632;51.666;7.146;2023-09-19T08:55:40;21.00;93.10
5226;DHT22;2632;51.666;7.146;2023-09-19T08:58:10;21.00;92.40
5226;DHT22;2632;51.666;7.146;2023-09-19T09:00:39;20.80;93.20
5226;DHT22;2632;51.666;7.146;2023-09-19T09:03:10;21.30;92.90
5226;DHT22;2632;51.666;7.146;2023-09-19T09:05:39;20.90;92.20
5226;DHT22;2632;51.666;7.146;2023-09-19T09:08:08;20.90;92.40
5226;DHT22;2632;51.666;7.146;2023-09-19T09:10:46;21.20;92.40
5226;DHT22;2632;51.666;7.146;2023-09-19T09:13:14;22.00;91.60
5226;DHT22;2632;51.666;7.146;2023-09-19T09:15:42;22.00;90.60
5226;DHT22;2632;51.666;7.146;2023-09-19T09:18:11;21.50;90.70
5226;DHT22;2632;51.666;7.146;2023-09-19T09:20:39;21.20;91.40
5226;DHT22;2632;51.666;7.146;2023-09-19T09:23:06;20.70;91.20
5226;DHT22;2632;51.666;7.146;2023-09-19T09:25:52;21.00;91.20
5226;DHT22;2632;51.666;7.146;2023-09-19T09:28:27;22.20;89.00
5226;DHT22;2632;51.666;7.146;2023-09-19T09:30:55;22.20;88.60
5226;DHT22;2632;51.666;7.146;2023-09-19T09:33:22;22.90;88.90
5226;DHT22;2632;51.666;7.146;2023-09-19T09:36:01;22.30;88.30
5226;DHT22;2632;51.666;7.146;2023-09-19T09:38:42;21.80;88.10
5226;DHT22;2632;51.666;7.146;2023-09-19T09:41:10;21.60;88.90
5226;DHT22;2632;51.666;7.146;2023-09-19T09:43:39;21.40;89.80
5226;DHT22;2632;51.666;7.146;2023-09-19T09:48:48;21.80;88.20
5226;DHT22;2632;51.666;7.146;2023-09-19T09:51:51;22.90;85.20
5226;DHT22;2632;51.666;7.146;2023-09-19T09:54:27;23.90;81.80
5226;DHT22;2632;51.666;7.146;2023-09-19T09:57:04;22.90;83.00
5226;DHT22;2632;51.666;7.146;2023-09-19T09:59:59;24.40;78.80
5226;DHT22;2632;51.666;7.146;2023-09-19T10:02:38;25.90;74.30
5226;DHT22;2632;51.666;7.146;2023-09-19T10:07:38;27.10;67.00
5226;DHT22;2632;51.666;7.146;2023-09-19T10:10:10;26.80;66.90
5226;DHT22;2632;51.666;7.146;2023-09-19T10:12:47;26.00;65.80
5226;DHT22;2632;51.666;7.146;2023-09-19T10:15:19;25.10;68.60
5226;DHT22;2632;51.666;7.146;2023-09-19T10:17:52;25.10;70.00
5226;DHT22;2632;51.666;7.146;2023-09-19T10:20:23;25.30;70.00
5226;DHT22;2632;51.666;7.146;2023-09-19T10:23:11;25.20;70.00
5226;DHT22;2632;51.666;7.146;2023-09-19T10:25:43;24.60;69.70
5226;DHT22;2632;51.666;7.146;2023-09-19T10:28:13;25.20;69.20
5226;DHT22;2632;51.666;7.146;2023-09-19T10:30:44;26.40;65.10
5226;DHT22;2632;51.666;7.146;2023-09-19T10:33:14;27.50;62.90
5226;DHT22;2632;51.666;7.146;2023-09-19T10:35:46;27.40;60.90
5226;DHT22;2632;51.666;7.146;2023-09-19T10:38:14;25.50;65.40
5226;DHT22;2632;51.666;7.146;2023-09-19T10:40:54;25.90;66.20
5226;DHT22;2632;51.666;7.146;2023-09-19T10:43:23;25.30;66.30
5226;DHT22;2632;51.666;7.146;2023-09-19T10:45:51;24.00;70.00
5226;DHT22;2632;51.666;7.146;2023-09-19T10:48:20;24.00;70.40
5226;DHT22;2632;51.666;7.146;2023-09-19T10:51:00;24.50;70.80
5226;DHT22;2632;51.666;7.146;2023-09-19T10:53:44;25.10;66.10
5226;DHT22;2632;51.666;7.146;2023-09-19T10:56:19;23.30;71.30
5226;DHT22;2632;51.666;7.146;2023-09-19T10:58:48;26.60;67.50
5226;DHT22;2632;51.666;7.146;2023-09-19T11:01:16;27.50;62.90
5226;DHT22;2632;51.666;7.146;2023-09-19T11:03:44;24.80;66.20
5226;DHT22;2632;51.666;7.146;2023-09-19T11:06:17;23.60;67.60
5226;DHT22;2632;51.666;7.146;2023-09-19T11:09:00;25.30;68.20
5226;DHT22;2632;51.666;7.146;2023-09-19T11:11:43;25.00;65.80
5226;DHT22;2632;51.666;7.146;2023-09-19T11:14:39;27.80;61.10
5226;DHT22;2632;51.666;7.146;2023-09-19T11:30:44;25.00;62.00
5226;DHT22;2632;51.666;7.146;2023-09-19T11:33:37;23.50;65.90
5226;DHT22;2632;51.666;7.146;2023-09-19T11:43:51;25.80;63.20
5226;DHT22;2632;51.666;7.146;2023-09-19T11:46:24;24.80;63.80
5226;DHT22;2632;51.666;7.146;2023-09-19T11:48:51;25.50;62.80
5226;DHT22;2632;51.666;7.146;2023-09-19T11:51:20;24.70;62.80
5226;DHT22;2632;51.666;7.146;2023-09-19T11:53:57;23.80;66.40
5226;DHT22;2632;51.666;7.146;2023-09-19T11:56:27;23.90;66.50
5226;DHT22;2632;51.666;7.146;2023-09-19T11:58:56;23.40;69.10
5226;DHT22;2632;51.666;7.146;2023-09-19T12:01:31;23.60;70.20
5226;DHT22;2632;51.666;7.146;2023-09-19T12:04:01;24.00;66.90
5226;DHT22;2632;51.666;7.146;2023-09-19T12:06:29;24.80;65.60
5226;DHT22;2632;51.666;7.146;2023-09-19T12:08:58;23.90;67.60
5226;DHT22;2632;51.666;7.146;2023-09-19T12:11:29;23.50;67.60
5226;DHT22;2632;51.666;7.146;2023-09-19T12:13:59;23.50;67.40
5226;DHT22;2632;51.666;7.146;2023-09-19T12:16:32;23.30;69.20
5226;DHT22;2632;51.666;7.146;2023-09-19T12:19:20;23.50;70.60
5226;DHT22;2632;51.666;7.146;2023-09-19T12:21:59;23.90;68.60
5226;DHT22;2632;51.666;7.146;2023-09-19T12:24:31;24.70;65.70
5226;DHT22;2632;51.666;7.146;2023-09-19T12:27:03;24.90;65.00
5226;DHT22;2632;51.666;7.146;2023-09-19T12:29:45;25.00;64.60
5226;DHT22;2632;51.666;7.146;2023-09-19T12:32:12;24.90;64.90
5226;DHT22;2632;51.666;7.146;2023-09-19T12:34:40;24.90;65.30
5226;DHT22;2632;51.666;7.146;2023-09-19T12:37:11;25.00;65.60
5226;DHT22;2632;51.666;7.146;2023-09-19T12:39:40;24.70;65.70
5226;DHT22;2632;51.666;7.146;2023-09-19T12:42:10;24.30;67.60
5226;DHT22;2632;51.666;7.146;2023-09-19T12:44:41;24.00;66.50
5226;DHT22;2632;51.666;7.146;2023-09-19T12:47:14;24.40;66.70
5226;DHT22;2632;51.666;7.146;2023-09-19T12:50:10;24.40;65.20
5226;DHT22;2632;51.666;7.146;2023-09-19T12:52:43;24.10;65.70
5226;DHT22;2632;51.666;7.146;2023-09-19T13:00:40;25.70;64.20
5226;DHT22;2632;51.666;7.146;2023-09-19T13:08:35;29.30;56.40
5226;DHT22;2632;51.666;7.146;2023-09-19T13:11:10;28.70;54.20
5226;DHT22;2632;51.666;7.146;2023-09-19T13:13:50;28.20;55.40
5226;DHT22;2632;51.666;7.146;2023-09-19T13:16:21;27.60;57.40
5226;DHT22;2632;51.666;7.146;2023-09-19T13:18:54;26.50;56.50
5226;DHT22;2632;51.666;7.146;2023-09-19T13:21:33;25.70;58.70
5226;DHT22;2632;51.666;7.146;2023-09-19T13:24:23;25.30;60.00
5226;DHT22;2632;51.666;7.146;2023-09-19T13:26:52;25.00;60.60
5226;DHT22;2632;51.666;7.146;2023-09-19T13:29:19;25.60;59.60
5226;DHT22;2632;51.666;7.146;2023-09-19T13:31:49;25.90;59.30
5226;DHT22;2632;51.666;7.146;2023-09-19T13:34:16;26.80;57.50
5226;DHT22;2632;51.666;7.146;2023-09-19T13:36:44;26.40;56.00
5226;DHT22;2632;51.666;7.146;2023-09-19T13:39:11;26.00;58.90
5226;DHT22;2632;51.666;7.146;2023-09-19T13:41:39;25.30;58.80
5226;DHT22;2632;51.666;7.146;2023-09-19T13:44:09;25.20;61.70
5226;DHT22;2632;51.666;7.146;2023-09-19T13:46:39;24.40;61.70
5226;DHT22;2632;51.666;7.146;2023-09-19T13:49:07;24.00;62.30
5226;DHT22;2632;51.666;7.146;2023-09-19T13:51:33;23.60;64.40
5226;DHT22;2632;51.666;7.146;2023-09-19T13:54:00;23.20;65.30
5226;DHT22;2632;51.666;7.146;2023-09-19T13:56:27;23.00;66.70
5226;DHT22;2632;51.666;7.146;2023-09-19T13:58:58;22.90;66.40
5226;DHT22;2632;51.666;7.146;2023-09-19T14:01:25;22.70;67.10
5226;DHT22;2632;51.666;7.146;2023-09-19T14:03:53;22.50;67.20
5226;DHT22;2632;51.666;7.146;2023-09-19T14:06:23;22.40;68.60
5226;DHT22;2632;51.666;7.146;2023-09-19T14:08:50;22.30;68.70
5226;DHT22;2632;51.666;7.146;2023-09-19T14:11:17;22.10;68.70
5226;DHT22;2632;51.666;7.146;2023-09-19T14:13:43;22.10;69.70
5226;DHT22;2632;51.666;7.146;2023-09-19T14:16:13;22.20;70.40
5226;DHT22;2632;51.666;7.146;2023-09-19T14:18:40;22.20;70.50
5226;DHT22;2632;51.666;7.146;2023-09-19T14:21:08;22.20;70.10
5226;DHT22;2632;51.666;7.146;2023-09-19T14:23:38;22.00;70.90
5226;DHT22;2632;51.666;7.146;2023-09-19T14:26:05;21.90;72.10
5226;DHT22;2632;51.666;7.146;2023-09-19T14:28:33;21.80;70.80
5226;DHT22;2632;51.666;7.146;2023-09-19T14:31:07;21.90;71.20
5226;DHT22;2632;51.666;7.146;2023-09-19T14:33:34;21.70;71.40
5226;DHT22;2632;51.666;7.146;2023-09-19T14:36:09;21.40;72.50
5226;DHT22;2632;51.666;7.146;2023-09-19T14:38:38;21.40;73.00
5226;DHT22;2632;51.666;7.146;2023-09-19T14:41:06;21.40;73.10
5226;DHT22;2632;51.666;7.146;2023-09-19T14:43:33;21.20;73.00
5226;DHT22;2632;51.666;7.146;2023-09-19T14:46:04;21.30;73.90
5226;DHT22;2632;51.666;7.146;2023-09-19T14:48:31;21.30;74.70
5226;DHT22;2632;51.666;7.146;2023-09-19T14:51:05;21.30;74.20
5226;DHT22;2632;51.666;7.146;2023-09-19T14:53:33;21.30;73.90
5226;DHT22;2632;51.666;7.146;2023-09-19T14:56:01;21.20;74.70
5226;DHT22;2632;51.666;7.146;2023-09-19T14:58:32;21.20;74.90
5226;DHT22;2632;51.666;7.146;2023-09-19T15:01:07;21.20;75.00
5226;DHT22;2632;51.666;7.146;2023-09-19T15:03:35;21.20;75.70
5226;DHT22;2632;51.666;7.146;2023-09-19T15:06:10;21.20;76.00
5226;DHT22;2632;51.666;7.146;2023-09-19T15:08:41;21.00;75.20
5226;DHT22;2632;51.666;7.146;2023-09-19T15:11:18;21.10;76.90
5226;DHT22;2632;51.666;7.146;2023-09-19T15:13:47;21.20;74.90
5226;DHT22;2632;51.666;7.146;2023-09-19T15:16:17;21.20;75.30
5226;DHT22;2632;51.666;7.146;2023-09-19T15:18:45;21.20;74.80
5226;DHT22;2632;51.666;7.146;2023-09-19T15:21:14;21.00;76.00
5226;DHT22;2632;51.666;7.146;2023-09-19T15:23:42;21.20;75.70
5226;DHT22;2632;51.666;7.146;2023-09-19T15:26:14;21.10;76.80
5226;DHT22;2632;51.666;7.146;2023-09-19T15:28:47;21.10;76.80
5226;DHT22;2632;51.666;7.146;2023-09-19T15:31:14;21.20;76.80
5226;DHT22;2632;51.666;7.146;2023-09-19T15:33:41;21.20;75.00
5226;DHT22;2632;51.666;7.146;2023-09-19T15:36:09;21.20;75.60
5226;DHT22;2632;51.666;7.146;2023-09-19T15:39:08;21.10;76.60
5226;DHT22;2632;51.666;7.146;2023-09-19T15:41:39;21.10;77.00
5226;DHT22;2632;51.666;7.146;2023-09-19T15:44:18;21.10;76.50
5226;DHT22;2632;51.666;7.146;2023-09-19T15:46:45;21.00;77.00
5226;DHT22;2632;51.666;7.146;2023-09-19T15:49:12;21.00;76.80
5226;DHT22;2632;51.666;7.146;2023-09-19T15:51:39;21.00;77.90
5226;DHT22;2632;51.666;7.146;2023-09-19T15:54:08;20.90;77.50
5226;DHT22;2632;51.666;7.146;2023-09-19T15:56:36;20.90;77.80
5226;DHT22;2632;51.666;7.146;2023-09-19T15:59:02;20.70;77.30
5226;DHT22;2632;51.666;7.146;2023-09-19T16:01:30;20.60;77.60
5226;DHT22;2632;51.666;7.146;2023-09-19T16:03:57;20.50;78.60
5226;DHT22;2632;51.666;7.146;2023-09-19T16:06:26;20.50;78.20
5226;DHT22;2632;51.666;7.146;2023-09-19T16:08:57;20.60;78.60
5226;DHT22;2632;51.666;7.146;2023-09-19T16:11:26;20.50;78.10
5226;DHT22;2632;51.666;7.146;2023-09-19T16:13:54;20.50;78.90
5226;DHT22;2632;51.666;7.146;2023-09-19T16:16:22;20.50;78.90
5226;DHT22;2632;51.666;7.146;2023-09-19T16:18:54;20.40;78.20
5226;DHT22;2632;51.666;7.146;2023-09-19T16:21:24;20.40;79.00
5226;DHT22;2632;51.666;7.146;2023-09-19T16:23:54;20.30;79.50
5226;DHT22;2632;51.666;7.146;2023-09-19T16:26:21;20.50;80.30
5226;DHT22;2632;51.666;7.146;2023-09-19T16:28:50;20.50;80.30
5226;DHT22;2632;51.666;7.146;2023-09-19T16:31:17;20.40;80.20
5226;DHT22;2632;51.666;7.146;2023-09-19T16:33:45;20.50;79.90
5226;DHT22;2632;51.666;7.146;2023-09-19T16:36:17;20.40;80.10
5226;DHT22;2632;51.666;7.146;2023-09-19T16:38:46;20.30;80.40
5226;DHT22;2632;51.666;7.146;2023-09-19T16:41:14;20.30;80.80
5226;DHT22;2632;51.666;7.146;2023-09-19T16:43:43;20.30;79.90
5226;DHT22;2632;51.666;7.146;2023-09-19T16:46:10;20.20;81.00
5226;DHT22;2632;51.666;7.146;2023-09-19T16:48:39;20.20;80.30
5226;DHT22;2632;51.666;7.146;2023-09-19T16:51:26;20.20;81.30
5226;DHT22;2632;51.666;7.146;2023-09-19T16:53:54;20.00;80.80
5226;DHT22;2632;51.666;7.146;2023-09-19T16:56:21;20.10;82.00
5226;DHT22;2632;51.666;7.146;2023-09-19T16:58:49;20.00;81.40
5226;DHT22;2632;51.666;7.146;2023-09-19T17:01:19;19.90;81.70
5226;DHT22;2632;51.666;7.146;2023-09-19T17:03:47;19.90;82.10
5226;DHT22;2632;51.666;7.146;2023-09-19T17:06:16;19.90;81.50
5226;DHT22;2632;51.666;7.146;2023-09-19T17:08:44;19.90;82.60
5226;DHT22;2632;51.666;7.146;2023-09-19T17:11:17;20.00;82.70